Time;durP1;ratioP1;P1;durP2;ratioP2;P2;SDS_P1;SDS_P2;PMS_P1;PMS_P2;Temp;Humidity;BMP_temperature;BMP_pressure;BME280_temperature;BME280_humidity;BME280_pressure;Samples;Min_cycle;Max_cycle;Signal;HPM_P1;HPM_P2
2021/10/16 09:01:22;;;;;;;10.37;3.63;;;9.90;98.20;;;;;;5145952;27;20704;-68
2021/10/16 09:03:50;;;;;;;9.93;2.50;;;9.80;97.90;;;;;;5169417;27;20038;-68
2021/10/16 09:06:20;;;;;;;10.13;2.63;;;9.90;98.30;;;;;;5169984;27;20034;-67
2021/10/16 09:08:51;;;;;;;10.93;3.20;;;10.00;98.60;;;;;;5169437;27;20497;-68
2021/10/16 09:11:24;;;;;;;8.35;2.60;;;10.00;99.00;;;;;;5170318;27;20051;-68
2021/10/16 09:13:53;;;;;;;12.00;2.97;;;10.10;99.20;;;;;;5170544;27;20046;-71
2021/10/16 09:16:31;;;;;;;6.33;2.17;;;10.20;99.40;;;;;;5171277;27;20093;-70
2021/10/16 09:19:10;;;;;;;9.50;2.97;;;10.30;99.50;;;;;;5170710;27;20054;-73
2021/10/16 09:21:47;;;;;;;8.80;2.70;;;10.40;99.60;;;;;;5151094;27;20408;-73
2021/10/16 09:24:16;;;;;;;9.20;3.00;;;10.50;99.50;;;;;;5170567;27;20051;-71
2021/10/16 09:26:44;;;;;;;9.47;2.83;;;10.60;99.40;;;;;;5170071;27;20056;-71
2021/10/16 09:29:15;;;;;;;8.73;3.03;;;10.70;99.50;;;;;;5169508;27;20390;-69
2021/10/16 09:31:44;;;;;;;8.68;2.13;;;10.80;99.30;;;;;;5151882;27;20102;-71
2021/10/16 09:34:10;;;;;;;11.57;3.00;;;10.90;99.20;;;;;;5170027;27;20034;-72
2021/10/16 09:36:37;;;;;;;7.20;2.53;;;11.00;99.10;;;;;;5170297;27;20424;-70
2021/10/16 09:39:05;;;;;;;11.13;3.33;;;11.10;98.90;;;;;;5151424;27;20086;-75
2021/10/16 09:41:36;;;;;;;9.63;2.93;;;11.30;98.60;;;;;;5170230;27;20122;-73
2021/10/16 09:44:04;;;;;;;8.75;2.88;;;11.40;98.50;;;;;;5170503;27;20049;-72
2021/10/16 09:46:30;;;;;;;8.30;3.07;;;11.50;98.10;;;;;;5170825;27;20538;-74
2021/10/16 09:49:06;;;;;;;7.03;2.40;;;11.50;98.10;;;;;;5169395;27;20046;-71
2021/10/16 09:51:32;;;;;;;7.80;3.00;;;11.60;97.80;;;;;;5170648;27;20050;-72
2021/10/16 09:54:08;;;;;;;9.00;2.60;;;11.70;97.60;;;;;;5170022;27;20046;-71
2021/10/16 09:56:36;;;;;;;9.27;2.50;;;11.80;97.40;;;;;;5169659;27;20050;-72
2021/10/16 09:59:02;;;;;;;7.77;2.73;;;11.80;97.20;;;;;;5169635;27;20125;-72
2021/10/16 10:01:28;;;;;;;10.63;2.90;;;11.90;96.70;;;;;;5170645;27;20141;-72
2021/10/16 10:03:54;;;;;;;7.97;2.30;;;11.90;96.30;;;;;;5150861;27;20501;-72
2021/10/16 10:06:21;;;;;;;8.60;3.80;;;11.90;96.10;;;;;;5170786;27;20046;-73
2021/10/16 10:08:47;;;;;;;10.27;2.70;;;12.00;96.10;;;;;;5165506;27;20039;-77
2021/10/16 10:11:15;;;;;;;7.57;2.37;;;12.00;96.00;;;;;;5154457;27;20047;-73
2021/10/16 10:13:41;;;;;;;5.97;2.23;;;12.10;95.80;;;;;;5135137;27;20193;-73
2021/10/16 10:16:07;;;;;;;9.73;2.83;;;12.10;95.50;;;;;;5135067;27;20175;-73
2021/10/16 10:21:21;;;;;;;6.70;2.30;;;12.20;95.40;;;;;;5134464;27;20543;-71
2021/10/16 10:23:55;;;;;;;8.07;2.63;;;12.30;95.50;;;;;;5133709;27;20043;-73
2021/10/16 10:26:43;;;;;;;7.83;2.17;;;12.30;95.30;;;;;;5136733;27;20175;-73
2021/10/16 10:29:17;;;;;;;9.10;2.80;;;12.40;95.10;;;;;;5144649;27;20047;-74
2021/10/16 10:31:49;;;;;;;7.73;2.50;;;12.30;94.50;;;;;;5135399;27;20043;-74
2021/10/16 10:34:35;;;;;;;9.15;2.58;;;12.30;94.30;;;;;;5116953;27;20099;-72
2021/10/16 10:37:27;;;;;;;8.50;2.50;;;12.30;94.20;;;;;;5146269;27;20070;-80
2021/10/16 10:39:57;;;;;;;;;;;12.40;94.00;;;;;;5147664;27;20127;-74
2021/10/16 10:42:25;;;;;;;8.47;2.50;;;12.30;92.40;;;;;;5140650;27;19927;-82
2021/10/16 10:44:54;;;;;;;10.47;2.80;;;12.40;94.00;;;;;;5145972;27;20122;-76
2021/10/16 10:47:36;;;;;;;9.73;2.50;;;12.40;94.10;;;;;;5151701;27;20095;-79
2021/10/16 10:50:10;;;;;;;9.13;2.80;;;12.40;93.70;;;;;;5149238;27;20054;-80
2021/10/16 10:53:01;;;;;;;11.83;2.63;;;12.50;93.90;;;;;;5149175;27;20054;-72
2021/10/16 10:55:29;;;;;;;6.37;2.30;;;12.50;93.60;;;;;;5125469;27;20074;-77
2021/10/16 10:58:01;;;;;;;9.27;2.27;;;12.50;93.70;;;;;;5137417;27;20095;-75
2021/10/16 11:00:34;;;;;;;9.10;2.57;;;12.60;93.50;;;;;;5137029;27;20090;-71
2021/10/16 11:03:00;;;;;;;9.37;2.97;;;12.60;93.20;;;;;;5136783;27;20050;-73
2021/10/16 11:05:32;;;;;;;9.73;3.13;;;12.70;93.20;;;;;;5154652;27;20046;-70
2021/10/16 11:08:11;;;;;;;9.60;2.50;;;12.70;92.90;;;;;;5135751;27;20154;-75
2021/10/16 11:10:37;;;;;;;11.00;3.83;;;12.80;93.10;;;;;;5144772;27;20492;-74
2021/10/16 11:13:13;;;;;;;8.20;4.90;;;12.80;93.30;;;;;;5133305;27;20087;-75
2021/10/16 11:15:40;;;;;;;8.90;3.37;;;12.90;93.20;;;;;;5155566;27;20043;-76
2021/10/16 11:18:10;;;;;;;9.83;2.67;;;12.90;93.20;;;;;;5137213;27;20114;-76
2021/10/16 11:20:36;;;;;;;8.97;2.60;;;12.90;92.70;;;;;;5154059;27;20506;-71
2021/10/16 11:23:02;;;;;;;10.73;3.03;;;12.90;92.50;;;;;;5152206;27;20035;-73
2021/10/16 11:25:30;;;;;;;9.13;2.37;;;12.90;92.70;;;;;;5125048;27;20051;-75
2021/10/16 11:28:03;;;;;;;9.20;3.20;;;12.90;92.60;;;;;;5127809;27;20043;-75
2021/10/16 11:30:28;;;;;;;9.40;2.90;;;13.00;92.50;;;;;;5142690;27;20130;-70
2021/10/16 11:33:03;;;;;;;7.80;2.70;;;13.00;92.50;;;;;;5114172;27;20089;-70
2021/10/16 11:35:29;;;;;;;12.00;2.53;;;13.00;92.30;;;;;;5114683;27;20062;-77
2021/10/16 11:37:54;;;;;;;9.17;3.00;;;13.10;92.10;;;;;;5148802;27;20051;-75
2021/10/16 11:40:26;;;;;;;13.03;3.30;;;13.00;92.30;;;;;;5124502;27;20367;-77
2021/10/16 11:43:03;;;;;;;10.80;4.15;;;13.10;92.30;;;;;;5152383;27;20035;-83
2021/10/16 11:45:32;;;;;;;9.63;2.97;;;13.10;92.20;;;;;;5154372;27;20043;-77
2021/10/16 11:51:46;;;;;;;7.30;2.27;;;13.10;91.20;;;;;;5104871;27;20453;-76
2021/10/16 11:54:16;;;;;;;7.83;2.80;;;13.10;91.80;;;;;;5109869;28;20047;-75
2021/10/16 11:56:42;;;;;;;8.23;2.87;;;13.10;91.90;;;;;;5107488;28;20127;-76
2021/10/16 11:59:08;;;;;;;11.23;2.97;;;13.20;91.90;;;;;;5108719;28;20591;-73
2021/10/16 12:01:44;;;;;;;9.93;2.97;;;13.20;92.10;;;;;;5109489;28;20093;-75
2021/10/16 12:04:11;;;;;;;12.03;3.03;;;13.30;91.90;;;;;;5102481;28;20039;-77
2021/10/16 12:06:37;;;;;;;10.43;2.60;;;13.30;91.70;;;;;;5103871;28;20043;-74
2021/10/16 12:09:04;;;;;;;8.63;3.23;;;13.30;90.80;;;;;;5115065;28;20091;-74
2021/10/16 12:11:31;;;;;;;7.70;2.57;;;13.20;90.60;;;;;;5129808;27;20079;-76
2021/10/16 12:13:59;;;;;;;7.23;2.17;;;13.20;90.40;;;;;;5128142;27;20042;-75
2021/10/16 12:16:32;;;;;;;9.57;2.60;;;13.20;90.00;;;;;;5129394;27;20043;-75
2021/10/16 12:19:00;;;;;;;10.67;3.83;;;13.20;89.50;;;;;;5127962;27;20039;-74
2021/10/16 12:21:47;;;;;;;12.80;3.20;;;13.20;89.70;;;;;;5127801;28;20054;-75
2021/10/16 12:24:17;;;;;;;6.63;2.00;;;13.30;89.70;;;;;;5126924;27;20509;-75
2021/10/16 12:26:49;;;;;;;8.80;2.80;;;13.30;89.00;;;;;;5126760;28;20040;-74
2021/10/16 12:29:29;;;;;;;7.60;2.20;;;13.30;88.60;;;;;;5127707;27;20501;-74
2021/10/16 12:31:55;;;;;;;8.70;2.30;;;13.30;88.10;;;;;;5127952;27;20150;-74
